sensor_id;sensor_type;location;lat;lon;timestamp;temperature;humidity
5675;DHT22;2860;54.284;10.158;2022-12-29T00:02:16;7.10;99.90
5675;DHT22;2860;54.284;10.158;2022-12-29T00:04:42;7.10;99.90
5675;DHT22;2860;54.284;10.158;2022-12-29T00:07:08;7.10;99.90
5675;DHT22;2860;54.284;10.158;2022-12-29T00:09:34;7.10;99.90
5675;DHT22;2860;54.284;10.158;2022-12-29T00:12:01;7.10;99.90
5675;DHT22;2860;54.284;10.158;2022-12-29T00:14:27;7.10;99.90
5675;DHT22;2860;54.284;10.158;2022-12-29T00:17:31;7.10;99.90
5675;DHT22;2860;54.284;10.158;2022-12-29T00:19:57;7.10;99.90
5675;DHT22;2860;54.284;10.158;2022-12-29T00:22:41;7.20;99.90
5675;DHT22;2860;54.284;10.158;2022-12-29T00:25:25;7.20;99.90
5675;DHT22;2860;54.284;10.158;2022-12-29T00:28:09;7.20;99.90
5675;DHT22;2860;54.284;10.158;2022-12-29T00:30:54;7.30;99.90
5675;DHT22;2860;54.284;10.158;2022-12-29T00:33:42;7.30;99.90
5675;DHT22;2860;54.284;10.158;2022-12-29T00:36:38;7.30;99.90
5675;DHT22;2860;54.284;10.158;2022-12-29T00:39:14;7.30;99.90
5675;DHT22;2860;54.284;10.158;2022-12-29T00:42:06;7.30;99.90
5675;DHT22;2860;54.284;10.158;2022-12-29T00:44:50;7.40;99.90
5675;DHT22;2860;54.284;10.158;2022-12-29T00:47:16;7.40;99.90
5675;DHT22;2860;54.284;10.158;2022-12-29T00:49:41;7.40;99.90
5675;DHT22;2860;54.284;10.158;2022-12-29T00:52:09;7.40;99.90
5675;DHT22;2860;54.284;10.158;2022-12-29T00:54:37;7.40;99.90
5675;DHT22;2860;54.284;10.158;2022-12-29T00:57:04;7.40;99.90
5675;DHT22;2860;54.284;10.158;2022-12-29T00:59:30;7.50;99.90
5675;DHT22;2860;54.284;10.158;2022-12-29T01:01:56;7.50;99.90
5675;DHT22;2860;54.284;10.158;2022-12-29T01:04:23;7.50;99.90
5675;DHT22;2860;54.284;10.158;2022-12-29T01:06:49;7.50;99.90
5675;DHT22;2860;54.284;10.158;2022-12-29T01:09:15;7.50;99.90
5675;DHT22;2860;54.284;10.158;2022-12-29T01:12:00;7.50;99.90
5675;DHT22;2860;54.284;10.158;2022-12-29T01:14:26;7.50;99.90
5675;DHT22;2860;54.284;10.158;2022-12-29T01:16:52;7.50;99.90
5675;DHT22;2860;54.284;10.158;2022-12-29T01:19:20;7.60;99.90
5675;DHT22;2860;54.284;10.158;2022-12-29T01:21:46;7.60;99.90
5675;DHT22;2860;54.284;10.158;2022-12-29T01:24:13;7.60;99.90
5675;DHT22;2860;54.284;10.158;2022-12-29T01:26:39;7.60;99.90
5675;DHT22;2860;54.284;10.158;2022-12-29T01:29:04;7.60;99.90
5675;DHT22;2860;54.284;10.158;2022-12-29T01:31:30;7.70;99.90
5675;DHT22;2860;54.284;10.158;2022-12-29T01:33:55;7.70;99.90
5675;DHT22;2860;54.284;10.158;2022-12-29T01:36:21;7.70;99.90
5675;DHT22;2860;54.284;10.158;2022-12-29T01:38:47;7.70;99.90
5675;DHT22;2860;54.284;10.158;2022-12-29T01:41:17;7.70;99.90
5675;DHT22;2860;54.284;10.158;2022-12-29T01:43:49;7.70;99.90
5675;DHT22;2860;54.284;10.158;2022-12-29T01:46:31;7.80;99.90
5675;DHT22;2860;54.284;10.158;2022-12-29T01:51:39;7.70;99.90
5675;DHT22;2860;54.284;10.158;2022-12-29T01:54:13;7.80;99.90
5675;DHT22;2860;54.284;10.158;2022-12-29T01:56:42;7.80;99.90
5675;DHT22;2860;54.284;10.158;2022-12-29T01:59:12;7.70;99.90
5675;DHT22;2860;54.284;10.158;2022-12-29T02:01:40;7.80;99.90
5675;DHT22;2860;54.284;10.158;2022-12-29T02:04:07;7.80;99.90
5675;DHT22;2860;54.284;10.158;2022-12-29T02:06:43;7.80;99.90
5675;DHT22;2860;54.284;10.158;2022-12-29T02:09:10;7.80;99.90
5675;DHT22;2860;54.284;10.158;2022-12-29T02:11:36;7.80;99.90
5675;DHT22;2860;54.284;10.158;2022-12-29T02:14:11;7.80;99.90
5675;DHT22;2860;54.284;10.158;2022-12-29T02:16:54;7.90;99.90
5675;DHT22;2860;54.284;10.158;2022-12-29T02:22:36;7.90;99.90
5675;DHT22;2860;54.284;10.158;2022-12-29T02:25:05;7.90;99.90
5675;DHT22;2860;54.284;10.158;2022-12-29T02:27:52;7.90;99.90
5675;DHT22;2860;54.284;10.158;2022-12-29T02:30:40;7.90;99.90
5675;DHT22;2860;54.284;10.158;2022-12-29T02:33:33;7.90;99.90
5675;DHT22;2860;54.284;10.158;2022-12-29T02:39:23;7.90;99.90
5675;DHT22;2860;54.284;10.158;2022-12-29T02:42:23;7.90;99.90
5675;DHT22;2860;54.284;10.158;2022-12-29T02:45:02;7.90;99.90
5675;DHT22;2860;54.284;10.158;2022-12-29T02:47:46;8.00;99.90
5675;DHT22;2860;54.284;10.158;2022-12-29T02:50:20;8.00;99.90
5675;DHT22;2860;54.284;10.158;2022-12-29T02:53:00;8.00;99.90
5675;DHT22;2860;54.284;10.158;2022-12-29T02:55:26;8.00;99.90
5675;DHT22;2860;54.284;10.158;2022-12-29T02:58:21;8.00;99.90
5675;DHT22;2860;54.284;10.158;2022-12-29T03:01:03;8.00;99.90
5675;DHT22;2860;54.284;10.158;2022-12-29T03:06:22;8.10;99.90
5675;DHT22;2860;54.284;10.158;2022-12-29T03:09:07;8.10;99.90
5675;DHT22;2860;54.284;10.158;2022-12-29T03:11:48;8.10;99.90
5675;DHT22;2860;54.284;10.158;2022-12-29T03:14:39;8.10;99.90
5675;DHT22;2860;54.284;10.158;2022-12-29T03:17:46;8.10;99.90
5675;DHT22;2860;54.284;10.158;2022-12-29T03:20:23;8.10;99.90
5675;DHT22;2860;54.284;10.158;2022-12-29T03:22:51;8.10;99.90
5675;DHT22;2860;54.284;10.158;2022-12-29T03:25:23;8.10;99.90
5675;DHT22;2860;54.284;10.158;2022-12-29T03:27:55;8.10;99.90
5675;DHT22;2860;54.284;10.158;2022-12-29T03:30:21;8.10;99.90
5675;DHT22;2860;54.284;10.158;2022-12-29T03:32:53;8.10;99.90
5675;DHT22;2860;54.284;10.158;2022-12-29T03:35:21;8.20;99.90
5675;DHT22;2860;54.284;10.158;2022-12-29T03:40:33;8.30;99.90
5675;DHT22;2860;54.284;10.158;2022-12-29T03:42:59;8.20;99.90
5675;DHT22;2860;54.284;10.158;2022-12-29T03:45:26;8.30;99.90
5675;DHT22;2860;54.284;10.158;2022-12-29T03:47:53;8.20;99.90
5675;DHT22;2860;54.284;10.158;2022-12-29T03:50:19;8.30;99.90
5675;DHT22;2860;54.284;10.158;2022-12-29T03:52:44;8.30;99.90
5675;DHT22;2860;54.284;10.158;2022-12-29T03:55:10;8.30;99.90
5675;DHT22;2860;54.284;10.158;2022-12-29T03:57:35;8.30;99.90
5675;DHT22;2860;54.284;10.158;2022-12-29T04:00:02;8.30;99.90
5675;DHT22;2860;54.284;10.158;2022-12-29T04:02:28;8.40;99.90
5675;DHT22;2860;54.284;10.158;2022-12-29T04:04:54;8.30;99.90
5675;DHT22;2860;54.284;10.158;2022-12-29T04:07:19;8.40;99.90
5675;DHT22;2860;54.284;10.158;2022-12-29T04:09:45;8.30;99.90
5675;DHT22;2860;54.284;10.158;2022-12-29T04:12:10;8.30;99.90
5675;DHT22;2860;54.284;10.158;2022-12-29T04:14:36;8.30;99.90
5675;DHT22;2860;54.284;10.158;2022-12-29T04:17:01;8.30;99.90
5675;DHT22;2860;54.284;10.158;2022-12-29T04:19:27;8.30;99.90
5675;DHT22;2860;54.284;10.158;2022-12-29T04:21:52;8.30;99.90
5675;DHT22;2860;54.284;10.158;2022-12-29T04:24:18;8.30;99.90
5675;DHT22;2860;54.284;10.158;2022-12-29T04:26:43;8.30;99.90
5675;DHT22;2860;54.284;10.158;2022-12-29T04:29:09;8.30;99.90
5675;DHT22;2860;54.284;10.158;2022-12-29T04:31:34;8.30;99.90
5675;DHT22;2860;54.284;10.158;2022-12-29T04:34:00;8.30;99.90
5675;DHT22;2860;54.284;10.158;2022-12-29T04:36:26;8.30;99.90
5675;DHT22;2860;54.284;10.158;2022-12-29T04:38:51;8.30;99.90
5675;DHT22;2860;54.284;10.158;2022-12-29T04:41:17;8.30;99.90
5675;DHT22;2860;54.284;10.158;2022-12-29T04:43:42;8.40;99.90
5675;DHT22;2860;54.284;10.158;2022-12-29T04:46:08;8.30;99.90
5675;DHT22;2860;54.284;10.158;2022-12-29T04:48:33;8.30;99.90
5675;DHT22;2860;54.284;10.158;2022-12-29T04:50:59;8.30;99.90
5675;DHT22;2860;54.284;10.158;2022-12-29T04:53:24;8.40;99.90
5675;DHT22;2860;54.284;10.158;2022-12-29T04:55:51;8.40;99.90
5675;DHT22;2860;54.284;10.158;2022-12-29T04:58:17;8.40;99.90
5675;DHT22;2860;54.284;10.158;2022-12-29T05:00:43;8.40;99.90
5675;DHT22;2860;54.284;10.158;2022-12-29T05:03:08;8.40;99.90
5675;DHT22;2860;54.284;10.158;2022-12-29T05:05:34;8.40;99.90
5675;DHT22;2860;54.284;10.158;2022-12-29T05:07:59;8.40;99.90
5675;DHT22;2860;54.284;10.158;2022-12-29T05:10:25;8.40;99.90
5675;DHT22;2860;54.284;10.158;2022-12-29T05:12:50;8.40;99.90
5675;DHT22;2860;54.284;10.158;2022-12-29T05:15:16;8.40;99.90
5675;DHT22;2860;54.284;10.158;2022-12-29T05:17:42;8.40;99.90
5675;DHT22;2860;54.284;10.158;2022-12-29T05:20:08;8.40;99.90
5675;DHT22;2860;54.284;10.158;2022-12-29T05:22:34;8.50;99.90
5675;DHT22;2860;54.284;10.158;2022-12-29T05:24:59;8.50;99.90
5675;DHT22;2860;54.284;10.158;2022-12-29T05:27:25;8.50;99.90
5675;DHT22;2860;54.284;10.158;2022-12-29T05:29:50;8.60;99.90
5675;DHT22;2860;54.284;10.158;2022-12-29T05:32:16;8.50;99.90
5675;DHT22;2860;54.284;10.158;2022-12-29T05:34:41;8.50;99.90
5675;DHT22;2860;54.284;10.158;2022-12-29T05:37:07;8.50;99.90
5675;DHT22;2860;54.284;10.158;2022-12-29T05:39:32;8.50;99.90
5675;DHT22;2860;54.284;10.158;2022-12-29T05:41:58;8.50;99.90
5675;DHT22;2860;54.284;10.158;2022-12-29T05:44:23;8.50;99.90
5675;DHT22;2860;54.284;10.158;2022-12-29T05:46:49;8.50;99.90
5675;DHT22;2860;54.284;10.158;2022-12-29T05:49:16;8.60;99.90
5675;DHT22;2860;54.284;10.158;2022-12-29T05:51:41;8.60;99.90
5675;DHT22;2860;54.284;10.158;2022-12-29T05:54:07;8.60;99.90
5675;DHT22;2860;54.284;10.158;2022-12-29T05:56:32;8.60;99.90
5675;DHT22;2860;54.284;10.158;2022-12-29T05:58:58;8.60;99.90
5675;DHT22;2860;54.284;10.158;2022-12-29T06:01:23;8.60;99.90
5675;DHT22;2860;54.284;10.158;2022-12-29T06:03:49;8.60;99.90
5675;DHT22;2860;54.284;10.158;2022-12-29T06:06:14;8.60;99.90
5675;DHT22;2860;54.284;10.158;2022-12-29T06:08:40;8.60;99.90
5675;DHT22;2860;54.284;10.158;2022-12-29T06:11:05;8.60;99.90
5675;DHT22;2860;54.284;10.158;2022-12-29T06:13:31;8.60;99.90
5675;DHT22;2860;54.284;10.158;2022-12-29T06:15:57;8.60;99.90
5675;DHT22;2860;54.284;10.158;2022-12-29T06:18:22;8.70;99.90
5675;DHT22;2860;54.284;10.158;2022-12-29T06:20:48;8.70;99.90
5675;DHT22;2860;54.284;10.158;2022-12-29T06:23:13;8.60;99.90
5675;DHT22;2860;54.284;10.158;2022-12-29T06:25:39;8.60;99.90
5675;DHT22;2860;54.284;10.158;2022-12-29T06:28:05;8.50;99.90
5675;DHT22;2860;54.284;10.158;2022-12-29T06:30:31;8.40;99.90
5675;DHT22;2860;54.284;10.158;2022-12-29T06:32:58;8.30;99.90
5675;DHT22;2860;54.284;10.158;2022-12-29T06:35:24;8.20;99.90
5675;DHT22;2860;54.284;10.158;2022-12-29T06:37:49;8.20;99.90
5675;DHT22;2860;54.284;10.158;2022-12-29T06:40:15;8.20;99.90
5675;DHT22;2860;54.284;10.158;2022-12-29T06:42:41;8.20;99.90
5675;DHT22;2860;54.284;10.158;2022-12-29T06:45:06;8.20;99.90
5675;DHT22;2860;54.284;10.158;2022-12-29T06:47:33;8.30;99.90
5675;DHT22;2860;54.284;10.158;2022-12-29T06:49:58;8.30;99.90
5675;DHT22;2860;54.284;10.158;2022-12-29T06:52:24;8.40;99.90
5675;DHT22;2860;54.284;10.158;2022-12-29T06:54:49;8.40;99.90
5675;DHT22;2860;54.284;10.158;2022-12-29T06:57:15;8.30;99.90
5675;DHT22;2860;54.284;10.158;2022-12-29T06:59:40;8.30;99.90
5675;DHT22;2860;54.284;10.158;2022-12-29T07:02:06;8.20;99.90
5675;DHT22;2860;54.284;10.158;2022-12-29T07:04:32;8.20;99.90
5675;DHT22;2860;54.284;10.158;2022-12-29T07:06:57;8.20;99.90
5675;DHT22;2860;54.284;10.158;2022-12-29T07:09:23;8.30;99.90
5675;DHT22;2860;54.284;10.158;2022-12-29T07:11:48;8.30;99.90
5675;DHT22;2860;54.284;10.158;2022-12-29T07:14:14;8.30;99.90
5675;DHT22;2860;54.284;10.158;2022-12-29T07:16:39;8.30;99.90
5675;DHT22;2860;54.284;10.158;2022-12-29T07:19:05;8.30;99.90
5675;DHT22;2860;54.284;10.158;2022-12-29T07:21:31;8.30;99.90
5675;DHT22;2860;54.284;10.158;2022-12-29T07:23:56;8.40;99.90
5675;DHT22;2860;54.284;10.158;2022-12-29T07:26:22;8.40;99.90
5675;DHT22;2860;54.284;10.158;2022-12-29T07:28:47;8.40;99.90
5675;DHT22;2860;54.284;10.158;2022-12-29T07:31:21;8.30;99.90
5675;DHT22;2860;54.284;10.158;2022-12-29T07:33:47;8.30;99.90
5675;DHT22;2860;54.284;10.158;2022-12-29T07:36:14;8.20;99.90
5675;DHT22;2860;54.284;10.158;2022-12-29T07:38:40;8.20;99.90
5675;DHT22;2860;54.284;10.158;2022-12-29T07:41:06;8.20;99.90
5675;DHT22;2860;54.284;10.158;2022-12-29T07:43:32;8.20;99.90
5675;DHT22;2860;54.284;10.158;2022-12-29T07:45:57;8.10;99.90
5675;DHT22;2860;54.284;10.158;2022-12-29T07:48:23;8.10;99.90
5675;DHT22;2860;54.284;10.158;2022-12-29T07:50:48;8.20;99.90
5675;DHT22;2860;54.284;10.158;2022-12-29T07:53:14;8.20;99.90
5675;DHT22;2860;54.284;10.158;2022-12-29T07:55:40;8.20;99.90
5675;DHT22;2860;54.284;10.158;2022-12-29T07:58:06;8.30;99.90
5675;DHT22;2860;54.284;10.158;2022-12-29T08:00:31;8.30;99.90
5675;DHT22;2860;54.284;10.158;2022-12-29T08:02:57;8.30;99.90
5675;DHT22;2860;54.284;10.158;2022-12-29T08:05:23;8.30;99.90
5675;DHT22;2860;54.284;10.158;2022-12-29T08:07:48;8.40;99.90
5675;DHT22;2860;54.284;10.158;2022-12-29T08:10:14;8.40;99.90
5675;DHT22;2860;54.284;10.158;2022-12-29T08:12:40;8.40;99.90
5675;DHT22;2860;54.284;10.158;2022-12-29T08:15:07;8.40;99.90
5675;DHT22;2860;54.284;10.158;2022-12-29T08:17:34;8.40;99.90
5675;DHT22;2860;54.284;10.158;2022-12-29T08:19:59;8.40;99.90
5675;DHT22;2860;54.284;10.158;2022-12-29T08:22:25;8.40;99.90
5675;DHT22;2860;54.284;10.158;2022-12-29T08:24:50;8.40;99.90
5675;DHT22;2860;54.284;10.158;2022-12-29T08:27:17;8.40;99.90
5675;DHT22;2860;54.284;10.158;2022-12-29T08:29:42;8.30;99.90
5675;DHT22;2860;54.284;10.158;2022-12-29T08:32:08;8.40;99.90
5675;DHT22;2860;54.284;10.158;2022-12-29T08:34:33;8.50;99.90
5675;DHT22;2860;54.284;10.158;2022-12-29T08:36:59;8.50;99.90
5675;DHT22;2860;54.284;10.158;2022-12-29T08:39:24;8.50;99.90
5675;DHT22;2860;54.284;10.158;2022-12-29T08:41:50;8.50;99.90
5675;DHT22;2860;54.284;10.158;2022-12-29T08:44:16;8.50;99.90
5675;DHT22;2860;54.284;10.158;2022-12-29T08:46:41;8.50;99.90
5675;DHT22;2860;54.284;10.158;2022-12-29T08:49:07;8.50;99.90
5675;DHT22;2860;54.284;10.158;2022-12-29T08:51:32;8.40;99.90
5675;DHT22;2860;54.284;10.158;2022-12-29T08:53:59;8.40;99.90
5675;DHT22;2860;54.284;10.158;2022-12-29T08:56:24;8.30;99.90
5675;DHT22;2860;54.284;10.158;2022-12-29T08:58:51;8.30;99.90
5675;DHT22;2860;54.284;10.158;2022-12-29T09:01:17;8.30;99.90
5675;DHT22;2860;54.284;10.158;2022-12-29T09:03:42;8.20;99.90
5675;DHT22;2860;54.284;10.158;2022-12-29T09:06:08;8.30;99.90
5675;DHT22;2860;54.284;10.158;2022-12-29T09:08:33;8.30;99.90
5675;DHT22;2860;54.284;10.158;2022-12-29T09:11:25;8.40;99.90
5675;DHT22;2860;54.284;10.158;2022-12-29T09:13:52;8.50;99.90
5675;DHT22;2860;54.284;10.158;2022-12-29T09:16:19;8.80;99.90
5675;DHT22;2860;54.284;10.158;2022-12-29T09:18:45;9.00;99.90
5675;DHT22;2860;54.284;10.158;2022-12-29T09:21:12;9.10;99.90
5675;DHT22;2860;54.284;10.158;2022-12-29T09:23:38;9.10;99.90
5675;DHT22;2860;54.284;10.158;2022-12-29T09:26:04;9.10;99.90
5675;DHT22;2860;54.284;10.158;2022-12-29T09:28:30;9.10;99.90
5675;DHT22;2860;54.284;10.158;2022-12-29T09:30:56;8.90;99.90
5675;DHT22;2860;54.284;10.158;2022-12-29T09:33:22;8.80;99.90
5675;DHT22;2860;54.284;10.158;2022-12-29T09:35:56;8.90;99.90
5675;DHT22;2860;54.284;10.158;2022-12-29T09:38:22;8.90;99.90
5675;DHT22;2860;54.284;10.158;2022-12-29T09:40:51;8.80;99.90
5675;DHT22;2860;54.284;10.158;2022-12-29T09:43:29;8.80;99.90
5675;DHT22;2860;54.284;10.158;2022-12-29T09:51:32;8.70;99.90
5675;DHT22;2860;54.284;10.158;2022-12-29T09:54:31;8.70;99.90
5675;DHT22;2860;54.284;10.158;2022-12-29T09:56:58;8.70;99.90
5675;DHT22;2860;54.284;10.158;2022-12-29T09:59:31;8.70;99.90
5675;DHT22;2860;54.284;10.158;2022-12-29T10:04:52;8.80;99.90
5675;DHT22;2860;54.284;10.158;2022-12-29T10:07:38;8.80;99.90
5675;DHT22;2860;54.284;10.158;2022-12-29T10:10:27;8.80;99.90
5675;DHT22;2860;54.284;10.158;2022-12-29T10:12:58;8.80;99.90
5675;DHT22;2860;54.284;10.158;2022-12-29T10:20:59;8.70;99.90
5675;DHT22;2860;54.284;10.158;2022-12-29T10:23:53;8.80;99.90
5675;DHT22;2860;54.284;10.158;2022-12-29T10:26:26;8.80;99.90
5675;DHT22;2860;54.284;10.158;2022-12-29T10:29:03;8.90;99.90
5675;DHT22;2860;54.284;10.158;2022-12-29T10:31:35;8.90;99.90
5675;DHT22;2860;54.284;10.158;2022-12-29T10:34:10;9.00;99.90
5675;DHT22;2860;54.284;10.158;2022-12-29T10:36:43;9.10;99.90
5675;DHT22;2860;54.284;10.158;2022-12-29T10:39:32;9.10;99.90
5675;DHT22;2860;54.284;10.158;2022-12-29T10:42:09;9.10;99.90
5675;DHT22;2860;54.284;10.158;2022-12-29T10:44:36;9.20;99.90
5675;DHT22;2860;54.284;10.158;2022-12-29T10:47:06;9.20;99.90
5675;DHT22;2860;54.284;10.158;2022-12-29T10:49:37;9.30;99.90
5675;DHT22;2860;54.284;10.158;2022-12-29T10:52:04;9.40;99.90
5675;DHT22;2860;54.284;10.158;2022-12-29T10:54:54;9.40;99.90
5675;DHT22;2860;54.284;10.158;2022-12-29T10:57:42;9.40;99.90
5675;DHT22;2860;54.284;10.158;2022-12-29T11:06:02;9.40;99.90
5675;DHT22;2860;54.284;10.158;2022-12-29T11:08:35;9.40;99.90
5675;DHT22;2860;54.284;10.158;2022-12-29T11:11:06;9.50;99.90
5675;DHT22;2860;54.284;10.158;2022-12-29T11:13:35;9.40;99.90
5675;DHT22;2860;54.284;10.158;2022-12-29T11:16:11;9.40;99.90
5675;DHT22;2860;54.284;10.158;2022-12-29T11:18:38;9.40;99.90
5675;DHT22;2860;54.284;10.158;2022-12-29T11:21:23;9.30;99.90
5675;DHT22;2860;54.284;10.158;2022-12-29T11:24:03;9.30;99.90
5675;DHT22;2860;54.284;10.158;2022-12-29T11:26:33;9.30;99.90
5675;DHT22;2860;54.284;10.158;2022-12-29T11:31:44;9.20;99.90
5675;DHT22;2860;54.284;10.158;2022-12-29T11:34:18;9.10;99.90
5675;DHT22;2860;54.284;10.158;2022-12-29T11:36:44;9.10;99.90
5675;DHT22;2860;54.284;10.158;2022-12-29T11:39:26;9.10;99.90
5675;DHT22;2860;54.284;10.158;2022-12-29T11:41:53;9.10;99.90
5675;DHT22;2860;54.284;10.158;2022-12-29T11:44:19;9.10;99.90
5675;DHT22;2860;54.284;10.158;2022-12-29T11:46:48;9.10;99.90
5675;DHT22;2860;54.284;10.158;2022-12-29T11:49:23;9.10;99.90
5675;DHT22;2860;54.284;10.158;2022-12-29T11:51:51;9.10;99.90
5675;DHT22;2860;54.284;10.158;2022-12-29T11:54:24;9.10;99.90
5675;DHT22;2860;54.284;10.158;2022-12-29T11:56:51;9.10;99.90
5675;DHT22;2860;54.284;10.158;2022-12-29T12:05:01;9.10;99.90
5675;DHT22;2860;54.284;10.158;2022-12-29T12:07:39;9.10;99.90
5675;DHT22;2860;54.284;10.158;2022-12-29T12:10:06;9.10;99.90
5675;DHT22;2860;54.284;10.158;2022-12-29T12:12:51;9.20;99.90
5675;DHT22;2860;54.284;10.158;2022-12-29T12:15:35;9.20;99.90
5675;DHT22;2860;54.284;10.158;2022-12-29T12:18:10;9.20;99.90
5675;DHT22;2860;54.284;10.158;2022-12-29T12:20:44;9.10;99.90
5675;DHT22;2860;54.284;10.158;2022-12-29T12:26:04;9.10;99.90
5675;DHT22;2860;54.284;10.158;2022-12-29T12:28:46;9.00;99.90
5675;DHT22;2860;54.284;10.158;2022-12-29T12:31:21;9.10;99.90
5675;DHT22;2860;54.284;10.158;2022-12-29T12:33:56;9.00;99.90
5675;DHT22;2860;54.284;10.158;2022-12-29T12:36:52;9.10;99.90
5675;DHT22;2860;54.284;10.158;2022-12-29T12:42:29;9.10;99.90
5675;DHT22;2860;54.284;10.158;2022-12-29T12:45:13;9.00;99.90
5675;DHT22;2860;54.284;10.158;2022-12-29T12:48:20;8.90;99.90
5675;DHT22;2860;54.284;10.158;2022-12-29T12:51:14;8.90;99.90
5675;DHT22;2860;54.284;10.158;2022-12-29T13:05:38;8.70;99.90
5675;DHT22;2860;54.284;10.158;2022-12-29T13:19:11;8.50;99.90
5675;DHT22;2860;54.284;10.158;2022-12-29T13:22:09;8.50;99.90
5675;DHT22;2860;54.284;10.158;2022-12-29T13:27:51;8.40;99.90
5675;DHT22;2860;54.284;10.158;2022-12-29T13:30:21;8.30;99.90
5675;DHT22;2860;54.284;10.158;2022-12-29T13:35:55;8.30;99.90
5675;DHT22;2860;54.284;10.158;2022-12-29T13:39:00;8.30;99.90
5675;DHT22;2860;54.284;10.158;2022-12-29T13:41:30;8.20;99.90
5675;DHT22;2860;54.284;10.158;2022-12-29T13:43:57;8.20;99.90
5675;DHT22;2860;54.284;10.158;2022-12-29T13:46:42;8.20;99.90
5675;DHT22;2860;54.284;10.158;2022-12-29T13:49:16;8.20;99.90
5675;DHT22;2860;54.284;10.158;2022-12-29T13:51:52;8.20;99.90
5675;DHT22;2860;54.284;10.158;2022-12-29T13:54:35;8.20;99.90
5675;DHT22;2860;54.284;10.158;2022-12-29T13:57:09;8.20;99.90
5675;DHT22;2860;54.284;10.158;2022-12-29T14:00:00;8.20;99.90
5675;DHT22;2860;54.284;10.158;2022-12-29T14:02:42;8.20;99.90
5675;DHT22;2860;54.284;10.158;2022-12-29T14:07:44;8.10;99.90
5675;DHT22;2860;54.284;10.158;2022-12-29T14:10:37;8.10;99.90
5675;DHT22;2860;54.284;10.158;2022-12-29T14:13:43;8.10;99.90
5675;DHT22;2860;54.284;10.158;2022-12-29T14:16:26;8.10;99.90
5675;DHT22;2860;54.284;10.158;2022-12-29T14:18:52;8.20;99.90
5675;DHT22;2860;54.284;10.158;2022-12-29T14:21:21;8.10;99.90
5675;DHT22;2860;54.284;10.158;2022-12-29T14:23:50;8.10;99.90
5675;DHT22;2860;54.284;10.158;2022-12-29T14:28:55;8.10;99.90
5675;DHT22;2860;54.284;10.158;2022-12-29T14:31:33;8.10;99.90
5675;DHT22;2860;54.284;10.158;2022-12-29T14:36:36;8.10;99.90
5675;DHT22;2860;54.284;10.158;2022-12-29T14:39:02;8.10;99.90
5675;DHT22;2860;54.284;10.158;2022-12-29T14:41:40;8.10;99.90
5675;DHT22;2860;54.284;10.158;2022-12-29T14:44:24;8.10;99.90
5675;DHT22;2860;54.284;10.158;2022-12-29T14:47:00;8.10;99.90
5675;DHT22;2860;54.284;10.158;2022-12-29T14:49:31;8.10;99.90
5675;DHT22;2860;54.284;10.158;2022-12-29T14:52:06;8.10;99.90
5675;DHT22;2860;54.284;10.158;2022-12-29T14:57:22;8.10;99.90
5675;DHT22;2860;54.284;10.158;2022-12-29T14:59:54;8.10;99.90
5675;DHT22;2860;54.284;10.158;2022-12-29T15:02:25;8.10;99.90
5675;DHT22;2860;54.284;10.158;2022-12-29T15:04:51;8.00;99.90
5675;DHT22;2860;54.284;10.158;2022-12-29T15:07:19;8.00;99.90
5675;DHT22;2860;54.284;10.158;2022-12-29T15:09:53;8.00;99.90
5675;DHT22;2860;54.284;10.158;2022-12-29T15:12:28;8.10;99.90
5675;DHT22;2860;54.284;10.158;2022-12-29T15:14:58;8.00;99.90
5675;DHT22;2860;54.284;10.158;2022-12-29T15:17:32;8.00;99.90
5675;DHT22;2860;54.284;10.158;2022-12-29T15:20:16;7.90;99.90
5675;DHT22;2860;54.284;10.158;2022-12-29T15:22:44;8.00;99.90
5675;DHT22;2860;54.284;10.158;2022-12-29T15:25:15;7.90;99.90
5675;DHT22;2860;54.284;10.158;2022-12-29T15:27:41;8.00;99.90
5675;DHT22;2860;54.284;10.158;2022-12-29T15:30:12;7.90;99.90
5675;DHT22;2860;54.284;10.158;2022-12-29T15:32:40;7.90;99.90
5675;DHT22;2860;54.284;10.158;2022-12-29T15:35:32;7.90;99.90
5675;DHT22;2860;54.284;10.158;2022-12-29T15:38:00;7.90;99.90
5675;DHT22;2860;54.284;10.158;2022-12-29T15:40:32;7.90;99.90
5675;DHT22;2860;54.284;10.158;2022-12-29T15:45:53;7.90;99.90
5675;DHT22;2860;54.284;10.158;2022-12-29T15:48:22;7.90;99.90
5675;DHT22;2860;54.284;10.158;2022-12-29T15:50:49;7.80;99.90
5675;DHT22;2860;54.284;10.158;2022-12-29T15:53:29;7.70;99.90
5675;DHT22;2860;54.284;10.158;2022-12-29T15:55:59;7.70;99.90
5675;DHT22;2860;54.284;10.158;2022-12-29T15:58:28;7.70;99.90
5675;DHT22;2860;54.284;10.158;2022-12-29T16:00:57;7.70;99.90
5675;DHT22;2860;54.284;10.158;2022-12-29T16:03:25;7.70;99.90
5675;DHT22;2860;54.284;10.158;2022-12-29T16:05:56;7.70;99.90
5675;DHT22;2860;54.284;10.158;2022-12-29T16:08:34;7.70;99.90
5675;DHT22;2860;54.284;10.158;2022-12-29T16:11:05;7.70;99.90
5675;DHT22;2860;54.284;10.158;2022-12-29T16:13:35;7.70;99.90
5675;DHT22;2860;54.284;10.158;2022-12-29T16:16:14;7.60;99.90
5675;DHT22;2860;54.284;10.158;2022-12-29T16:18:41;7.60;99.90
5675;DHT22;2860;54.284;10.158;2022-12-29T16:21:17;7.60;99.90
5675;DHT22;2860;54.284;10.158;2022-12-29T16:23:47;7.50;99.90
5675;DHT22;2860;54.284;10.158;2022-12-29T16:26:18;7.50;99.90
5675;DHT22;2860;54.284;10.158;2022-12-29T16:28:45;7.50;99.90
5675;DHT22;2860;54.284;10.158;2022-12-29T16:31:33;7.40;99.90
5675;DHT22;2860;54.284;10.158;2022-12-29T16:34:11;7.40;99.90
5675;DHT22;2860;54.284;10.158;2022-12-29T16:39:31;7.30;99.90
5675;DHT22;2860;54.284;10.158;2022-12-29T16:41:57;7.10;99.90
5675;DHT22;2860;54.284;10.158;2022-12-29T16:44:26;7.00;99.90
5675;DHT22;2860;54.284;10.158;2022-12-29T16:47:02;7.00;99.90
5675;DHT22;2860;54.284;10.158;2022-12-29T16:49:30;6.80;99.90
5675;DHT22;2860;54.284;10.158;2022-12-29T16:51:56;6.70;99.90
5675;DHT22;2860;54.284;10.158;2022-12-29T16:54:35;6.60;99.90
5675;DHT22;2860;54.284;10.158;2022-12-29T16:57:01;6.50;99.90
5675;DHT22;2860;54.284;10.158;2022-12-29T16:59:34;6.50;99.90
5675;DHT22;2860;54.284;10.158;2022-12-29T17:02:05;6.40;99.90
5675;DHT22;2860;54.284;10.158;2022-12-29T17:04:31;6.40;99.90
5675;DHT22;2860;54.284;10.158;2022-12-29T17:06:57;6.30;99.90
5675;DHT22;2860;54.284;10.158;2022-12-29T17:09:27;6.30;99.90
5675;DHT22;2860;54.284;10.158;2022-12-29T17:11:58;6.20;99.90
5675;DHT22;2860;54.284;10.158;2022-12-29T17:14:42;6.10;99.90
5675;DHT22;2860;54.284;10.158;2022-12-29T17:19:46;6.00;99.90
5675;DHT22;2860;54.284;10.158;2022-12-29T17:22:16;5.90;99.90
5675;DHT22;2860;54.284;10.158;2022-12-29T17:24:42;5.90;99.90
5675;DHT22;2860;54.284;10.158;2022-12-29T17:27:19;5.90;99.90
5675;DHT22;2860;54.284;10.158;2022-12-29T17:29:45;6.00;99.90
5675;DHT22;2860;54.284;10.158;2022-12-29T17:32:12;6.00;99.90
5675;DHT22;2860;54.284;10.158;2022-12-29T17:34:39;6.00;99.90
5675;DHT22;2860;54.284;10.158;2022-12-29T17:39:49;6.10;99.90
5675;DHT22;2860;54.284;10.158;2022-12-29T17:42:15;6.10;99.90
5675;DHT22;2860;54.284;10.158;2022-12-29T17:44:41;6.10;99.90
5675;DHT22;2860;54.284;10.158;2022-12-29T17:47:10;6.10;99.90
5675;DHT22;2860;54.284;10.158;2022-12-29T17:49:35;6.20;99.90
5675;DHT22;2860;54.284;10.158;2022-12-29T17:52:01;6.20;99.90
5675;DHT22;2860;54.284;10.158;2022-12-29T17:54:27;6.20;99.90
5675;DHT22;2860;54.284;10.158;2022-12-29T17:56:53;6.30;99.90
5675;DHT22;2860;54.284;10.158;2022-12-29T17:59:18;6.30;99.90
5675;DHT22;2860;54.284;10.158;2022-12-29T18:01:46;6.30;99.90
5675;DHT22;2860;54.284;10.158;2022-12-29T18:04:19;6.30;99.90
5675;DHT22;2860;54.284;10.158;2022-12-29T18:06:45;6.40;99.90